sensor_id;sensor_type;location;lat;lon;timestamp;P1;durP1;ratioP1;P2;durP2;ratioP2
58123;SDS011;46725;48.068;20.832;2022-12-29T00:01:41;39.80;;;19.10;;
58123;SDS011;46725;48.068;20.832;2022-12-29T00:04:09;35.17;;;17.08;;
58123;SDS011;46725;48.068;20.832;2022-12-29T00:06:36;37.13;;;18.75;;
58123;SDS011;46725;48.068;20.832;2022-12-29T00:09:02;34.97;;;18.15;;
58123;SDS011;46725;48.068;20.832;2022-12-29T00:11:28;32.85;;;17.25;;
58123;SDS011;46725;48.068;20.832;2022-12-29T00:13:54;32.58;;;16.13;;
58123;SDS011;46725;48.068;20.832;2022-12-29T00:16:44;32.92;;;15.32;;
58123;SDS011;46725;48.068;20.832;2022-12-29T00:19:11;24.73;;;13.70;;
58123;SDS011;46725;48.068;20.832;2022-12-29T00:21:56;28.42;;;13.48;;
58123;SDS011;46725;48.068;20.832;2022-12-29T00:24:41;25.15;;;13.77;;
58123;SDS011;46725;48.068;20.832;2022-12-29T00:27:26;28.33;;;14.52;;
58123;SDS011;46725;48.068;20.832;2022-12-29T00:30:15;27.67;;;13.65;;
58123;SDS011;46725;48.068;20.832;2022-12-29T00:33:00;30.80;;;13.93;;
58123;SDS011;46725;48.068;20.832;2022-12-29T00:35:51;27.05;;;13.85;;
58123;SDS011;46725;48.068;20.832;2022-12-29T00:38:18;28.30;;;14.43;;
58123;SDS011;46725;48.068;20.832;2022-12-29T00:41:03;25.83;;;14.23;;
58123;SDS011;46725;48.068;20.832;2022-12-29T00:43:47;35.10;;;14.68;;
58123;SDS011;46725;48.068;20.832;2022-12-29T00:46:35;29.27;;;15.50;;
58123;SDS011;46725;48.068;20.832;2022-12-29T00:49:01;33.30;;;16.10;;
58123;SDS011;46725;48.068;20.832;2022-12-29T00:51:47;34.55;;;16.50;;
58123;SDS011;46725;48.068;20.832;2022-12-29T00:54:13;34.83;;;16.80;;
58123;SDS011;46725;48.068;20.832;2022-12-29T00:56:39;30.55;;;16.55;;
58123;SDS011;46725;48.068;20.832;2022-12-29T00:59:07;36.30;;;16.60;;
58123;SDS011;46725;48.068;20.832;2022-12-29T01:01:33;32.90;;;16.85;;
58123;SDS011;46725;48.068;20.832;2022-12-29T01:03:59;33.22;;;16.92;;
58123;SDS011;46725;48.068;20.832;2022-12-29T01:06:26;33.85;;;15.10;;
58123;SDS011;46725;48.068;20.832;2022-12-29T01:08:52;32.88;;;17.17;;
58123;SDS011;46725;48.068;20.832;2022-12-29T01:11:40;35.70;;;16.70;;
58123;SDS011;46725;48.068;20.832;2022-12-29T01:14:06;39.42;;;18.88;;
58123;SDS011;46725;48.068;20.832;2022-12-29T01:16:32;39.28;;;19.83;;
58123;SDS011;46725;48.068;20.832;2022-12-29T01:18:58;35.83;;;19.88;;
58123;SDS011;46725;48.068;20.832;2022-12-29T01:21:25;36.88;;;19.73;;
58123;SDS011;46725;48.068;20.832;2022-12-29T01:23:51;41.50;;;21.05;;
58123;SDS011;46725;48.068;20.832;2022-12-29T01:26:17;43.13;;;20.75;;
58123;SDS011;46725;48.068;20.832;2022-12-29T01:28:43;35.55;;;18.30;;
58123;SDS011;46725;48.068;20.832;2022-12-29T01:31:10;33.17;;;17.45;;
58123;SDS011;46725;48.068;20.832;2022-12-29T01:33:37;42.58;;;19.95;;
58123;SDS011;46725;48.068;20.832;2022-12-29T01:36:07;35.63;;;17.73;;
58123;SDS011;46725;48.068;20.832;2022-12-29T01:38:35;42.20;;;19.70;;
58123;SDS011;46725;48.068;20.832;2022-12-29T01:41:01;41.38;;;19.95;;
58123;SDS011;46725;48.068;20.832;2022-12-29T01:46:07;36.10;;;18.23;;
58123;SDS011;46725;48.068;20.832;2022-12-29T01:48:38;40.25;;;17.00;;
58123;SDS011;46725;48.068;20.832;2022-12-29T01:51:04;34.20;;;17.58;;
58123;SDS011;46725;48.068;20.832;2022-12-29T01:53:30;37.13;;;19.15;;
58123;SDS011;46725;48.068;20.832;2022-12-29T01:55:59;29.23;;;15.95;;
58123;SDS011;46725;48.068;20.832;2022-12-29T01:58:26;35.33;;;17.67;;
58123;SDS011;46725;48.068;20.832;2022-12-29T02:00:54;37.70;;;18.33;;
58123;SDS011;46725;48.068;20.832;2022-12-29T02:03:20;40.40;;;19.13;;
58123;SDS011;46725;48.068;20.832;2022-12-29T02:05:58;39.38;;;21.13;;
58123;SDS011;46725;48.068;20.832;2022-12-29T02:08:26;38.42;;;20.10;;
58123;SDS011;46725;48.068;20.832;2022-12-29T02:10:53;44.75;;;20.60;;
58123;SDS011;46725;48.068;20.832;2022-12-29T02:13:20;39.88;;;21.63;;
58123;SDS011;46725;48.068;20.832;2022-12-29T02:26:16;69.85;;;25.92;;
58123;SDS011;46725;48.068;20.832;2022-12-29T02:41:49;93.53;;;29.10;;
58123;SDS011;46725;48.068;20.832;2022-12-29T02:46:47;82.47;;;31.27;;
58123;SDS011;46725;48.068;20.832;2022-12-29T02:49:30;134.48;;;35.55;;
58123;SDS011;46725;48.068;20.832;2022-12-29T02:54:40;101.78;;;29.58;;
58123;SDS011;46725;48.068;20.832;2022-12-29T02:57:14;99.72;;;29.75;;
58123;SDS011;46725;48.068;20.832;2022-12-29T02:59:42;112.13;;;29.02;;
58123;SDS011;46725;48.068;20.832;2022-12-29T03:09:53;99.35;;;30.13;;
58123;SDS011;46725;48.068;20.832;2022-12-29T03:12:26;104.43;;;31.60;;
58123;SDS011;46725;48.068;20.832;2022-12-29T03:15:18;91.10;;;31.33;;
58123;SDS011;46725;48.068;20.832;2022-12-29T03:18:06;120.80;;;32.97;;
58123;SDS011;46725;48.068;20.832;2022-12-29T03:20:39;106.38;;;32.15;;
58123;SDS011;46725;48.068;20.832;2022-12-29T03:23:07;92.93;;;30.52;;
58123;SDS011;46725;48.068;20.832;2022-12-29T03:25:35;77.15;;;28.52;;
58123;SDS011;46725;48.068;20.832;2022-12-29T03:28:03;71.78;;;25.08;;
58123;SDS011;46725;48.068;20.832;2022-12-29T03:30:31;63.03;;;22.80;;
58123;SDS011;46725;48.068;20.832;2022-12-29T03:32:59;57.17;;;24.25;;
58123;SDS011;46725;48.068;20.832;2022-12-29T03:35:27;82.47;;;26.73;;
58123;SDS011;46725;48.068;20.832;2022-12-29T03:37:58;70.53;;;25.05;;
58123;SDS011;46725;48.068;20.832;2022-12-29T03:40:25;80.93;;;27.05;;
58123;SDS011;46725;48.068;20.832;2022-12-29T03:42:53;69.88;;;26.70;;
58123;SDS011;46725;48.068;20.832;2022-12-29T03:45:19;81.55;;;27.73;;
58123;SDS011;46725;48.068;20.832;2022-12-29T03:47:45;72.75;;;26.70;;
58123;SDS011;46725;48.068;20.832;2022-12-29T03:50:12;65.95;;;24.95;;
58123;SDS011;46725;48.068;20.832;2022-12-29T03:52:38;60.35;;;22.63;;
58123;SDS011;46725;48.068;20.832;2022-12-29T03:55:04;57.08;;;23.40;;
58123;SDS011;46725;48.068;20.832;2022-12-29T03:57:30;54.92;;;21.83;;
58123;SDS011;46725;48.068;20.832;2022-12-29T03:59:56;56.90;;;23.10;;
58123;SDS011;46725;48.068;20.832;2022-12-29T04:02:22;64.40;;;21.35;;
58123;SDS011;46725;48.068;20.832;2022-12-29T04:04:48;62.33;;;23.80;;
58123;SDS011;46725;48.068;20.832;2022-12-29T04:07:14;61.90;;;23.42;;
58123;SDS011;46725;48.068;20.832;2022-12-29T04:09:40;55.88;;;23.35;;
58123;SDS011;46725;48.068;20.832;2022-12-29T04:12:06;50.33;;;22.58;;
58123;SDS011;46725;48.068;20.832;2022-12-29T04:14:32;58.35;;;24.15;;
58123;SDS011;46725;48.068;20.832;2022-12-29T04:16:59;55.53;;;23.95;;
58123;SDS011;46725;48.068;20.832;2022-12-29T04:19:25;54.08;;;22.48;;
58123;SDS011;46725;48.068;20.832;2022-12-29T04:21:51;54.33;;;21.85;;
58123;SDS011;46725;48.068;20.832;2022-12-29T04:24:17;46.35;;;21.90;;
58123;SDS011;46725;48.068;20.832;2022-12-29T04:26:43;54.35;;;20.70;;
58123;SDS011;46725;48.068;20.832;2022-12-29T04:29:09;54.53;;;22.45;;
58123;SDS011;46725;48.068;20.832;2022-12-29T04:31:35;52.28;;;21.13;;
58123;SDS011;46725;48.068;20.832;2022-12-29T04:34:01;48.75;;;20.63;;
58123;SDS011;46725;48.068;20.832;2022-12-29T04:36:28;44.22;;;20.33;;
58123;SDS011;46725;48.068;20.832;2022-12-29T04:38:54;51.08;;;20.85;;
58123;SDS011;46725;48.068;20.832;2022-12-29T04:41:20;51.08;;;20.00;;
58123;SDS011;46725;48.068;20.832;2022-12-29T04:43:46;50.63;;;21.10;;
58123;SDS011;46725;48.068;20.832;2022-12-29T04:46:12;42.38;;;20.08;;
58123;SDS011;46725;48.068;20.832;2022-12-29T04:48:38;41.40;;;19.70;;
58123;SDS011;46725;48.068;20.832;2022-12-29T04:51:04;43.42;;;19.60;;
58123;SDS011;46725;48.068;20.832;2022-12-29T04:53:30;45.45;;;19.60;;
58123;SDS011;46725;48.068;20.832;2022-12-29T04:55:56;47.45;;;19.17;;
58123;SDS011;46725;48.068;20.832;2022-12-29T04:58:22;42.97;;;20.02;;
58123;SDS011;46725;48.068;20.832;2022-12-29T05:00:49;45.70;;;19.73;;
58123;SDS011;46725;48.068;20.832;2022-12-29T05:03:15;48.15;;;20.23;;
58123;SDS011;46725;48.068;20.832;2022-12-29T05:05:41;46.80;;;21.75;;
58123;SDS011;46725;48.068;20.832;2022-12-29T05:08:07;46.60;;;19.58;;
58123;SDS011;46725;48.068;20.832;2022-12-29T05:10:33;40.97;;;19.38;;
58123;SDS011;46725;48.068;20.832;2022-12-29T05:12:59;38.72;;;18.45;;
58123;SDS011;46725;48.068;20.832;2022-12-29T05:15:26;53.30;;;21.80;;
58123;SDS011;46725;48.068;20.832;2022-12-29T05:17:52;60.38;;;25.38;;
58123;SDS011;46725;48.068;20.832;2022-12-29T05:20:18;57.80;;;24.10;;
58123;SDS011;46725;48.068;20.832;2022-12-29T05:22:44;51.08;;;22.27;;
58123;SDS011;46725;48.068;20.832;2022-12-29T05:25:10;61.83;;;24.95;;
58123;SDS011;46725;48.068;20.832;2022-12-29T05:27:37;59.08;;;25.70;;
58123;SDS011;46725;48.068;20.832;2022-12-29T05:30:03;65.32;;;24.85;;
58123;SDS011;46725;48.068;20.832;2022-12-29T05:32:29;66.88;;;25.27;;
58123;SDS011;46725;48.068;20.832;2022-12-29T05:34:55;76.50;;;27.65;;
58123;SDS011;46725;48.068;20.832;2022-12-29T05:37:21;73.03;;;26.83;;
58123;SDS011;46725;48.068;20.832;2022-12-29T05:39:47;85.63;;;28.88;;
58123;SDS011;46725;48.068;20.832;2022-12-29T05:42:13;64.53;;;26.67;;
58123;SDS011;46725;48.068;20.832;2022-12-29T05:44:39;65.80;;;26.45;;
58123;SDS011;46725;48.068;20.832;2022-12-29T05:47:05;59.47;;;26.60;;
58123;SDS011;46725;48.068;20.832;2022-12-29T05:49:31;63.83;;;25.08;;
58123;SDS011;46725;48.068;20.832;2022-12-29T05:51:57;63.05;;;26.90;;
58123;SDS011;46725;48.068;20.832;2022-12-29T05:54:24;74.35;;;29.33;;
58123;SDS011;46725;48.068;20.832;2022-12-29T05:56:50;60.72;;;26.02;;
58123;SDS011;46725;48.068;20.832;2022-12-29T05:59:16;56.17;;;23.70;;
58123;SDS011;46725;48.068;20.832;2022-12-29T06:01:42;70.03;;;27.73;;
58123;SDS011;46725;48.068;20.832;2022-12-29T06:04:08;98.70;;;42.28;;
58123;SDS011;46725;48.068;20.832;2022-12-29T06:06:34;114.40;;;43.38;;
58123;SDS011;46725;48.068;20.832;2022-12-29T06:09:00;137.77;;;52.78;;
58123;SDS011;46725;48.068;20.832;2022-12-29T06:11:26;131.18;;;52.85;;
58123;SDS011;46725;48.068;20.832;2022-12-29T06:13:52;109.07;;;47.38;;
58123;SDS011;46725;48.068;20.832;2022-12-29T06:16:18;101.25;;;40.65;;
58123;SDS011;46725;48.068;20.832;2022-12-29T06:18:44;95.90;;;40.55;;
58123;SDS011;46725;48.068;20.832;2022-12-29T06:21:10;76.20;;;32.42;;
58123;SDS011;46725;48.068;20.832;2022-12-29T06:23:36;97.80;;;38.47;;
58123;SDS011;46725;48.068;20.832;2022-12-29T06:26:02;69.60;;;31.10;;
58123;SDS011;46725;48.068;20.832;2022-12-29T06:28:28;87.25;;;35.30;;
58123;SDS011;46725;48.068;20.832;2022-12-29T06:30:54;75.43;;;33.42;;
58123;SDS011;46725;48.068;20.832;2022-12-29T06:33:20;86.55;;;37.08;;
58123;SDS011;46725;48.068;20.832;2022-12-29T06:35:47;89.30;;;35.38;;
58123;SDS011;46725;48.068;20.832;2022-12-29T06:38:13;86.70;;;34.80;;
58123;SDS011;46725;48.068;20.832;2022-12-29T06:40:39;79.78;;;32.78;;
58123;SDS011;46725;48.068;20.832;2022-12-29T06:43:06;73.18;;;32.53;;
58123;SDS011;46725;48.068;20.832;2022-12-29T06:45:32;79.90;;;33.72;;
58123;SDS011;46725;48.068;20.832;2022-12-29T06:47:58;82.85;;;35.45;;
58123;SDS011;46725;48.068;20.832;2022-12-29T06:50:24;94.65;;;41.08;;
58123;SDS011;46725;48.068;20.832;2022-12-29T06:52:50;119.32;;;47.55;;
58123;SDS011;46725;48.068;20.832;2022-12-29T06:55:16;110.93;;;48.17;;
58123;SDS011;46725;48.068;20.832;2022-12-29T06:57:42;116.68;;;47.50;;
58123;SDS011;46725;48.068;20.832;2022-12-29T07:00:08;92.50;;;42.03;;
58123;SDS011;46725;48.068;20.832;2022-12-29T07:02:35;93.63;;;45.13;;
58123;SDS011;46725;48.068;20.832;2022-12-29T07:05:01;95.97;;;42.97;;
58123;SDS011;46725;48.068;20.832;2022-12-29T07:07:27;96.28;;;42.75;;
58123;SDS011;46725;48.068;20.832;2022-12-29T07:09:53;82.50;;;38.30;;
58123;SDS011;46725;48.068;20.832;2022-12-29T07:12:19;77.45;;;36.47;;
58123;SDS011;46725;48.068;20.832;2022-12-29T07:14:45;64.80;;;29.77;;
58123;SDS011;46725;48.068;20.832;2022-12-29T07:17:11;51.13;;;23.52;;
58123;SDS011;46725;48.068;20.832;2022-12-29T07:19:37;45.25;;;21.45;;
58123;SDS011;46725;48.068;20.832;2022-12-29T07:22:03;46.95;;;23.30;;
58123;SDS011;46725;48.068;20.832;2022-12-29T07:24:29;49.33;;;23.90;;
58123;SDS011;46725;48.068;20.832;2022-12-29T07:26:55;50.10;;;25.52;;
58123;SDS011;46725;48.068;20.832;2022-12-29T07:29:21;54.17;;;25.25;;
58123;SDS011;46725;48.068;20.832;2022-12-29T07:31:47;55.45;;;26.95;;
58123;SDS011;46725;48.068;20.832;2022-12-29T07:34:13;54.58;;;25.70;;
58123;SDS011;46725;48.068;20.832;2022-12-29T07:36:39;55.67;;;26.63;;
58123;SDS011;46725;48.068;20.832;2022-12-29T07:39:05;51.55;;;24.83;;
58123;SDS011;46725;48.068;20.832;2022-12-29T07:41:32;51.38;;;25.30;;
58123;SDS011;46725;48.068;20.832;2022-12-29T07:43:58;47.47;;;23.75;;
58123;SDS011;46725;48.068;20.832;2022-12-29T07:46:24;52.95;;;26.05;;
58123;SDS011;46725;48.068;20.832;2022-12-29T07:48:50;46.30;;;22.63;;
58123;SDS011;46725;48.068;20.832;2022-12-29T07:51:16;47.05;;;23.42;;
58123;SDS011;46725;48.068;20.832;2022-12-29T07:53:42;49.38;;;23.13;;
58123;SDS011;46725;48.068;20.832;2022-12-29T07:56:08;45.47;;;22.95;;
58123;SDS011;46725;48.068;20.832;2022-12-29T07:58:34;47.30;;;24.13;;
58123;SDS011;46725;48.068;20.832;2022-12-29T08:01:00;46.60;;;23.73;;
58123;SDS011;46725;48.068;20.832;2022-12-29T08:03:26;47.42;;;23.08;;
58123;SDS011;46725;48.068;20.832;2022-12-29T08:05:52;39.78;;;22.10;;
58123;SDS011;46725;48.068;20.832;2022-12-29T08:08:18;43.78;;;22.27;;
58123;SDS011;46725;48.068;20.832;2022-12-29T08:10:45;38.92;;;20.95;;
58123;SDS011;46725;48.068;20.832;2022-12-29T08:13:11;48.88;;;23.08;;
58123;SDS011;46725;48.068;20.832;2022-12-29T08:15:38;42.55;;;22.20;;
58123;SDS011;46725;48.068;20.832;2022-12-29T08:18:04;39.83;;;21.20;;
58123;SDS011;46725;48.068;20.832;2022-12-29T08:20:31;42.17;;;22.42;;
58123;SDS011;46725;48.068;20.832;2022-12-29T08:22:57;42.15;;;23.05;;
58123;SDS011;46725;48.068;20.832;2022-12-29T08:25:23;43.40;;;23.42;;
58123;SDS011;46725;48.068;20.832;2022-12-29T08:27:49;44.10;;;24.15;;
58123;SDS011;46725;48.068;20.832;2022-12-29T08:30:15;51.83;;;24.92;;
58123;SDS011;46725;48.068;20.832;2022-12-29T08:32:41;42.40;;;23.20;;
58123;SDS011;46725;48.068;20.832;2022-12-29T08:35:07;49.03;;;24.55;;
58123;SDS011;46725;48.068;20.832;2022-12-29T08:37:34;43.15;;;23.75;;
58123;SDS011;46725;48.068;20.832;2022-12-29T08:40:00;41.45;;;23.15;;
58123;SDS011;46725;48.068;20.832;2022-12-29T08:42:29;46.05;;;24.27;;
58123;SDS011;46725;48.068;20.832;2022-12-29T08:44:56;51.95;;;26.15;;
58123;SDS011;46725;48.068;20.832;2022-12-29T08:47:22;49.72;;;26.63;;
58123;SDS011;46725;48.068;20.832;2022-12-29T08:49:48;53.45;;;28.98;;
58123;SDS011;46725;48.068;20.832;2022-12-29T08:52:14;49.25;;;26.88;;
58123;SDS011;46725;48.068;20.832;2022-12-29T08:54:40;49.30;;;26.85;;
58123;SDS011;46725;48.068;20.832;2022-12-29T08:57:06;50.60;;;27.35;;
58123;SDS011;46725;48.068;20.832;2022-12-29T08:59:33;46.72;;;25.52;;
58123;SDS011;46725;48.068;20.832;2022-12-29T09:01:59;42.03;;;23.30;;
58123;SDS011;46725;48.068;20.832;2022-12-29T09:04:26;41.00;;;23.80;;
58123;SDS011;46725;48.068;20.832;2022-12-29T09:06:52;48.25;;;26.15;;
58123;SDS011;46725;48.068;20.832;2022-12-29T09:09:19;44.92;;;25.33;;
58123;SDS011;46725;48.068;20.832;2022-12-29T09:11:45;44.53;;;25.52;;
58123;SDS011;46725;48.068;20.832;2022-12-29T09:14:11;41.63;;;24.05;;
58123;SDS011;46725;48.068;20.832;2022-12-29T09:16:37;45.60;;;22.38;;
58123;SDS011;46725;48.068;20.832;2022-12-29T09:19:04;40.15;;;21.95;;
58123;SDS011;46725;48.068;20.832;2022-12-29T09:21:30;41.83;;;23.33;;
58123;SDS011;46725;48.068;20.832;2022-12-29T09:23:56;40.30;;;24.05;;
58123;SDS011;46725;48.068;20.832;2022-12-29T09:26:22;40.25;;;22.67;;
58123;SDS011;46725;48.068;20.832;2022-12-29T09:28:48;36.97;;;20.58;;
58123;SDS011;46725;48.068;20.832;2022-12-29T09:31:14;41.55;;;22.30;;
58123;SDS011;46725;48.068;20.832;2022-12-29T09:33:40;33.97;;;21.20;;
58123;SDS011;46725;48.068;20.832;2022-12-29T09:36:08;36.10;;;20.92;;
58123;SDS011;46725;48.068;20.832;2022-12-29T09:38:34;38.17;;;21.77;;
58123;SDS011;46725;48.068;20.832;2022-12-29T09:43:30;39.63;;;22.00;;
58123;SDS011;46725;48.068;20.832;2022-12-29T09:46:03;35.67;;;20.60;;
58123;SDS011;46725;48.068;20.832;2022-12-29T09:48:37;42.15;;;22.08;;
58123;SDS011;46725;48.068;20.832;2022-12-29T09:51:08;39.63;;;21.52;;
58123;SDS011;46725;48.068;20.832;2022-12-29T09:53:36;42.58;;;24.25;;
58123;SDS011;46725;48.068;20.832;2022-12-29T09:56:04;43.10;;;23.48;;
58123;SDS011;46725;48.068;20.832;2022-12-29T10:01:01;45.88;;;24.77;;
58123;SDS011;46725;48.068;20.832;2022-12-29T10:03:48;45.55;;;24.27;;
58123;SDS011;46725;48.068;20.832;2022-12-29T10:06:37;42.85;;;23.95;;
58123;SDS011;46725;48.068;20.832;2022-12-29T10:09:24;34.85;;;21.52;;
58123;SDS011;46725;48.068;20.832;2022-12-29T10:11:58;36.92;;;22.58;;
58123;SDS011;46725;48.068;20.832;2022-12-29T10:24:46;31.58;;;17.50;;
58123;SDS011;46725;48.068;20.832;2022-12-29T10:27:13;30.85;;;17.90;;
58123;SDS011;46725;48.068;20.832;2022-12-29T10:29:48;33.42;;;17.00;;
58123;SDS011;46725;48.068;20.832;2022-12-29T10:34:51;27.90;;;17.45;;
58123;SDS011;46725;48.068;20.832;2022-12-29T10:40:11;25.88;;;14.18;;
58123;SDS011;46725;48.068;20.832;2022-12-29T10:42:41;27.20;;;14.52;;
58123;SDS011;46725;48.068;20.832;2022-12-29T10:45:14;22.92;;;14.23;;
58123;SDS011;46725;48.068;20.832;2022-12-29T10:50:07;31.25;;;17.90;;
58123;SDS011;46725;48.068;20.832;2022-12-29T10:52:33;29.13;;;13.98;;
58123;SDS011;46725;48.068;20.832;2022-12-29T10:55:02;26.45;;;15.13;;
58123;SDS011;46725;48.068;20.832;2022-12-29T10:57:36;25.23;;;13.93;;
58123;SDS011;46725;48.068;20.832;2022-12-29T11:00:12;26.73;;;15.43;;
58123;SDS011;46725;48.068;20.832;2022-12-29T11:07:33;26.42;;;14.52;;
58123;SDS011;46725;48.068;20.832;2022-12-29T11:10:29;21.70;;;12.75;;
58123;SDS011;46725;48.068;20.832;2022-12-29T11:13:00;27.23;;;12.77;;
58123;SDS011;46725;48.068;20.832;2022-12-29T11:15:26;24.52;;;13.07;;
58123;SDS011;46725;48.068;20.832;2022-12-29T11:17:56;24.17;;;13.15;;
58123;SDS011;46725;48.068;20.832;2022-12-29T11:20:27;23.60;;;13.00;;
58123;SDS011;46725;48.068;20.832;2022-12-29T11:22:53;24.95;;;13.10;;
58123;SDS011;46725;48.068;20.832;2022-12-29T11:25:20;24.23;;;13.70;;
58123;SDS011;46725;48.068;20.832;2022-12-29T11:28:03;27.80;;;14.10;;
58123;SDS011;46725;48.068;20.832;2022-12-29T11:30:30;25.83;;;14.05;;
58123;SDS011;46725;48.068;20.832;2022-12-29T11:32:57;36.28;;;16.67;;
58123;SDS011;46725;48.068;20.832;2022-12-29T11:35:31;28.90;;;13.40;;
58123;SDS011;46725;48.068;20.832;2022-12-29T11:37:57;31.67;;;17.05;;
58123;SDS011;46725;48.068;20.832;2022-12-29T11:40:24;30.40;;;17.20;;
58123;SDS011;46725;48.068;20.832;2022-12-29T11:42:51;25.98;;;16.58;;
58123;SDS011;46725;48.068;20.832;2022-12-29T11:45:25;25.23;;;13.73;;
58123;SDS011;46725;48.068;20.832;2022-12-29T11:47:52;26.73;;;14.82;;
58123;SDS011;46725;48.068;20.832;2022-12-29T11:50:29;26.77;;;14.10;;
58123;SDS011;46725;48.068;20.832;2022-12-29T11:55:26;29.83;;;15.70;;
58123;SDS011;46725;48.068;20.832;2022-12-29T11:57:52;28.90;;;17.10;;
58123;SDS011;46725;48.068;20.832;2022-12-29T12:00:20;32.78;;;15.75;;
58123;SDS011;46725;48.068;20.832;2022-12-29T12:08:12;32.65;;;17.45;;
58123;SDS011;46725;48.068;20.832;2022-12-29T12:10:45;32.42;;;16.13;;
58123;SDS011;46725;48.068;20.832;2022-12-29T12:13:20;31.65;;;17.60;;
58123;SDS011;46725;48.068;20.832;2022-12-29T12:15:51;30.83;;;18.15;;
58123;SDS011;46725;48.068;20.832;2022-12-29T12:18:21;29.73;;;16.33;;
58123;SDS011;46725;48.068;20.832;2022-12-29T12:20:52;30.73;;;17.38;;
58123;SDS011;46725;48.068;20.832;2022-12-29T12:23:24;28.90;;;17.23;;
58123;SDS011;46725;48.068;20.832;2022-12-29T12:28:20;36.47;;;20.13;;
58123;SDS011;46725;48.068;20.832;2022-12-29T12:30:48;31.73;;;18.92;;
58123;SDS011;46725;48.068;20.832;2022-12-29T12:33:18;32.95;;;18.25;;
58123;SDS011;46725;48.068;20.832;2022-12-29T12:44:10;54.65;;;30.52;;
58123;SDS011;46725;48.068;20.832;2022-12-29T12:46:45;55.17;;;29.75;;
58123;SDS011;46725;48.068;20.832;2022-12-29T13:02:09;44.08;;;22.17;;
58123;SDS011;46725;48.068;20.832;2022-12-29T13:04:48;47.42;;;23.17;;
58123;SDS011;46725;48.068;20.832;2022-12-29T13:10:00;42.40;;;22.95;;
58123;SDS011;46725;48.068;20.832;2022-12-29T13:15:34;53.55;;;26.75;;
58123;SDS011;46725;48.068;20.832;2022-12-29T13:20:39;39.55;;;22.17;;
58123;SDS011;46725;48.068;20.832;2022-12-29T13:33:53;32.75;;;19.95;;
58123;SDS011;46725;48.068;20.832;2022-12-29T13:38:48;43.78;;;23.92;;
58123;SDS011;46725;48.068;20.832;2022-12-29T13:43:42;44.05;;;26.83;;
58123;SDS011;46725;48.068;20.832;2022-12-29T13:46:15;39.30;;;21.33;;
58123;SDS011;46725;48.068;20.832;2022-12-29T13:49:04;38.13;;;21.30;;
58123;SDS011;46725;48.068;20.832;2022-12-29T13:51:31;38.72;;;22.65;;
58123;SDS011;46725;48.068;20.832;2022-12-29T13:56:32;47.33;;;26.90;;
58123;SDS011;46725;48.068;20.832;2022-12-29T14:01:30;56.13;;;30.20;;
58123;SDS011;46725;48.068;20.832;2022-12-29T14:04:00;67.00;;;42.20;;
58123;SDS011;46725;48.068;20.832;2022-12-29T14:06:28;62.72;;;36.40;;
58123;SDS011;46725;48.068;20.832;2022-12-29T14:08:59;50.10;;;27.75;;
58123;SDS011;46725;48.068;20.832;2022-12-29T14:11:30;47.65;;;25.73;;
58123;SDS011;46725;48.068;20.832;2022-12-29T14:13:57;47.15;;;26.92;;
58123;SDS011;46725;48.068;20.832;2022-12-29T14:16:25;44.25;;;25.38;;
58123;SDS011;46725;48.068;20.832;2022-12-29T14:18:52;44.53;;;23.45;;
58123;SDS011;46725;48.068;20.832;2022-12-29T14:21:22;43.42;;;23.05;;
58123;SDS011;46725;48.068;20.832;2022-12-29T14:23:52;38.63;;;22.63;;
58123;SDS011;46725;48.068;20.832;2022-12-29T14:28:57;44.22;;;22.48;;
58123;SDS011;46725;48.068;20.832;2022-12-29T14:31:41;38.22;;;20.80;;
58123;SDS011;46725;48.068;20.832;2022-12-29T14:36:40;50.13;;;27.00;;
58123;SDS011;46725;48.068;20.832;2022-12-29T14:47:33;32.72;;;19.27;;
58123;SDS011;46725;48.068;20.832;2022-12-29T14:52:53;111.03;;;48.00;;
58123;SDS011;46725;48.068;20.832;2022-12-29T14:57:52;106.55;;;45.97;;
58123;SDS011;46725;48.068;20.832;2022-12-29T15:00:23;119.43;;;49.08;;
58123;SDS011;46725;48.068;20.832;2022-12-29T15:02:59;118.57;;;52.25;;
58123;SDS011;46725;48.068;20.832;2022-12-29T15:05:41;110.80;;;47.97;;
58123;SDS011;46725;48.068;20.832;2022-12-29T15:08:09;81.68;;;41.40;;
58123;SDS011;46725;48.068;20.832;2022-12-29T15:10:41;100.30;;;48.33;;
58123;SDS011;46725;48.068;20.832;2022-12-29T15:13:16;76.75;;;41.88;;
58123;SDS011;46725;48.068;20.832;2022-12-29T15:15:42;109.18;;;55.60;;
58123;SDS011;46725;48.068;20.832;2022-12-29T15:18:21;102.70;;;53.95;;
58123;SDS011;46725;48.068;20.832;2022-12-29T15:20:50;94.32;;;50.67;;
58123;SDS011;46725;48.068;20.832;2022-12-29T15:23:17;85.97;;;51.92;;
58123;SDS011;46725;48.068;20.832;2022-12-29T15:25:47;79.75;;;42.72;;
58123;SDS011;46725;48.068;20.832;2022-12-29T15:28:15;68.05;;;38.55;;
58123;SDS011;46725;48.068;20.832;2022-12-29T15:30:57;68.97;;;35.33;;
58123;SDS011;46725;48.068;20.832;2022-12-29T15:33:27;66.50;;;34.08;;
58123;SDS011;46725;48.068;20.832;2022-12-29T15:35:54;70.28;;;35.80;;
58123;SDS011;46725;48.068;20.832;2022-12-29T15:38:24;61.78;;;33.75;;
58123;SDS011;46725;48.068;20.832;2022-12-29T15:40:52;57.00;;;30.83;;
58123;SDS011;46725;48.068;20.832;2022-12-29T15:46:04;71.43;;;36.97;;
58123;SDS011;46725;48.068;20.832;2022-12-29T15:48:30;87.03;;;42.88;;
58123;SDS011;46725;48.068;20.832;2022-12-29T15:50:56;68.50;;;38.10;;
58123;SDS011;46725;48.068;20.832;2022-12-29T15:53:30;71.97;;;37.13;;
58123;SDS011;46725;48.068;20.832;2022-12-29T15:55:58;101.90;;;48.08;;
58123;SDS011;46725;48.068;20.832;2022-12-29T15:58:26;122.13;;;55.30;;
58123;SDS011;46725;48.068;20.832;2022-12-29T16:00:54;104.45;;;52.00;;
58123;SDS011;46725;48.068;20.832;2022-12-29T16:03:21;121.90;;;54.03;;
58123;SDS011;46725;48.068;20.832;2022-12-29T16:05:55;108.32;;;52.30;;
58123;SDS011;46725;48.068;20.832;2022-12-29T16:10:48;115.10;;;57.42;;
58123;SDS011;46725;48.068;20.832;2022-12-29T16:13:31;110.13;;;49.80;;
58123;SDS011;46725;48.068;20.832;2022-12-29T16:16:03;109.72;;;53.45;;
58123;SDS011;46725;48.068;20.832;2022-12-29T16:18:34;107.47;;;48.72;;
58123;SDS011;46725;48.068;20.832;2022-12-29T16:21:01;106.88;;;51.13;;
58123;SDS011;46725;48.068;20.832;2022-12-29T16:23:28;108.90;;;48.90;;
58123;SDS011;46725;48.068;20.832;2022-12-29T16:25:55;92.28;;;42.13;;
58123;SDS011;46725;48.068;20.832;2022-12-29T16:28:44;101.40;;;49.83;;
58123;SDS011;46725;48.068;20.832;2022-12-29T16:31:20;88.90;;;44.17;;
58123;SDS011;46725;48.068;20.832;2022-12-29T16:38:52;111.85;;;57.58;;
58123;SDS011;46725;48.068;20.832;2022-12-29T16:41:28;112.32;;;61.20;;
58123;SDS011;46725;48.068;20.832;2022-12-29T16:46:43;150.15;;;77.60;;
58123;SDS011;46725;48.068;20.832;2022-12-29T16:49:14;148.32;;;79.10;;
58123;SDS011;46725;48.068;20.832;2022-12-29T16:51:42;170.93;;;90.47;;
58123;SDS011;46725;48.068;20.832;2022-12-29T16:54:13;213.52;;;112.45;;
58123;SDS011;46725;48.068;20.832;2022-12-29T16:56:44;185.23;;;99.32;;
58123;SDS011;46725;48.068;20.832;2022-12-29T16:59:25;104.50;;;54.03;;